Time;durP1;ratioP1;P1;durP2;ratioP2;P2;SDS_P1;SDS_P2;PMS_P1;PMS_P2;Temp;Humidity;BMP_temperature;BMP_pressure;BME280_temperature;BME280_humidity;BME280_pressure;Samples;Min_cycle;Max_cycle;Signal;HPM_P1;HPM_P2
2022/04/19 00:00:35;;;;;;;;;14.33;13.00;;;;;13.72;59.87;101308.34;5062590;28;45876;-70
2022/04/19 00:03:02;;;;;;;;;15.00;14.75;;;;;13.68;60.13;101303.31;5067354;28;45414;-70
2022/04/19 00:05:29;;;;;;;;;16.00;13.25;;;;;13.68;60.25;101304.19;5065195;28;45368;-70
2022/04/19 00:07:54;;;;;;;;;16.25;15.00;;;;;13.59;60.06;101296.91;5070536;28;45437;-70
2022/04/19 00:10:19;;;;;;;;;17.00;12.33;;;;;13.60;60.20;101293.19;5061499;28;45487;-70
2022/04/19 00:12:45;;;;;;;;;15.00;14.33;;;;;13.49;60.49;101291.56;5072360;27;45330;-70
2022/04/19 00:15:11;;;;;;;;;8.00;8.00;;;;;13.45;60.69;101287.41;5062325;28;45287;-70
2022/04/19 00:17:36;;;;;;;;;15.00;12.33;;;;;13.43;60.71;101299.50;5075159;28;45453;-70
2022/04/19 00:20:02;;;;;;;;;12.25;11.75;;;;;13.45;60.36;101287.41;5062199;28;45553;-70
2022/04/19 00:22:28;;;;;;;;;12.00;12.00;;;;;13.43;60.49;101288.56;5073155;28;45327;-70
2022/04/19 00:24:55;;;;;;;;;18.75;13.50;;;;;13.40;60.60;101280.69;5062449;28;45307;-70
2022/04/19 00:27:20;;;;;;;;;13.75;11.25;;;;;13.30;60.80;101283.47;5066368;28;45471;-69
2022/04/19 00:29:47;;;;;;;;;12.00;12.00;;;;;13.30;60.80;101279.88;5086792;27;45414;-69
2022/04/19 00:32:14;;;;;;;;;14.00;12.00;;;;;13.21;60.14;101266.16;5065232;28;45474;-69
2022/04/19 00:34:39;;;;;;;;;11.33;9.00;;;;;13.27;59.75;101280.19;5075993;28;45647;-70
2022/04/19 00:37:06;;;;;;;;;14.75;11.00;;;;;13.32;60.08;101291.50;5073960;28;45494;-69
2022/04/19 00:39:31;;;;;;;;;10.00;10.00;;;;;13.29;59.67;101286.38;5074245;28;47518;-69
2022/04/19 00:41:57;;;;;;;;;11.25;11.25;;;;;13.22;60.15;101291.59;5070402;28;45396;-68
2022/04/19 00:44:23;;;;;;;;;15.67;11.00;;;;;13.33;59.46;101290.50;5073179;28;45521;-68
2022/04/19 00:46:50;;;;;;;;;14.00;11.00;;;;;13.24;60.30;101284.94;5072666;28;45416;-68
2022/04/19 00:49:17;;;;;;;;;11.00;10.75;;;;;13.25;60.17;101288.53;5073324;28;45490;-68
2022/04/19 00:51:43;;;;;;;;;13.33;9.00;;;;;13.17;60.14;101281.09;5069715;28;45425;-69
2022/04/19 00:54:09;;;;;;;;;11.00;9.00;;;;;13.13;60.09;101282.44;5077403;27;45538;-68
2022/04/19 00:56:34;;;;;;;;;10.25;9.75;;;;;13.13;59.81;101282.44;5072280;28;45439;-68
2022/04/19 00:59:02;;;;;;;;;12.67;10.00;;;;;13.16;59.65;101273.94;5070793;28;45412;-68
2022/04/19 01:01:27;;;;;;;;;15.33;12.67;;;;;13.11;59.87;101273.50;5070700;28;45482;-68
2022/04/19 01:03:52;;;;;;;;;12.00;10.67;;;;;12.99;60.29;101274.72;5069969;28;45461;-68
2022/04/19 01:06:18;;;;;;;;;14.33;12.67;;;;;12.94;60.22;101270.72;5074392;28;45559;-68
2022/04/19 01:08:44;;;;;;;;;10.33;9.00;;;;;12.99;60.02;101276.59;5073710;27;46466;-68
2022/04/19 01:14:10;;;;;;;;;9.33;8.67;;;;;12.80;60.09;101281.13;5034931;28;45428;-68
2022/04/19 01:16:36;;;;;;;;;12.00;11.00;;;;;12.77;59.72;101278.69;5060859;28;45437;-68
2022/04/19 01:19:05;;;;;;;;;7.00;5.00;;;;;12.66;59.62;101278.00;5072482;28;46374;-68
2022/04/19 01:21:50;;;;;;;;;9.33;8.00;;;;;12.69;58.96;101281.31;5068614;28;45456;-68
2022/04/19 01:24:20;;;;;;;;;8.67;5.67;;;;;12.70;58.88;101274.00;5069046;27;45334;-68
2022/04/19 01:26:46;;;;;;;;;7.75;7.75;;;;;12.67;58.24;101274.28;5071414;28;45421;-68
2022/04/19 01:29:12;;;;;;;;;7.50;6.00;;;;;12.57;57.86;101268.00;5089313;27;47082;-68
2022/04/19 01:31:40;;;;;;;;;6.25;6.00;;;;;12.52;57.87;101273.03;5067370;28;45332;-68
2022/04/19 01:34:06;;;;;;;;;11.00;6.00;;;;;12.42;58.45;101260.28;5076792;28;45496;-68
2022/04/19 01:36:38;;;;;;;;;8.00;6.25;;;;;12.45;58.03;101268.19;5067720;28;45580;-68
2022/04/19 01:39:09;;;;;;;;;8.00;7.75;;;;;12.39;58.05;101271.50;5077629;28;48084;-68
2022/04/19 01:41:36;;;;;;;;;5.67;5.67;;;;;12.27;57.53;101258.22;5069516;28;45239;-68
2022/04/19 01:44:04;;;;;;;;;9.33;8.00;;;;;12.22;57.98;101260.50;5073533;28;45402;-68
2022/04/19 01:46:31;;;;;;;;;5.33;5.33;;;;;12.05;57.53;101267.56;5068345;28;45591;-68
2022/04/19 01:48:57;;;;;;;;;5.33;5.33;;;;;12.11;58.00;101261.53;5074350;27;45340;-68
2022/04/19 01:51:23;;;;;;;;;8.00;4.33;;;;;12.08;58.05;101267.25;5067137;28;45452;-68
2022/04/19 01:53:49;;;;;;;;;5.00;5.00;;;;;12.06;57.59;101261.94;5072846;28;45299;-69
2022/04/19 01:56:14;;;;;;;;;10.00;8.33;;;;;12.07;57.81;101265.53;5067032;28;45475;-69
2022/04/19 01:58:40;;;;;;;;;9.33;6.67;;;;;11.97;57.58;101261.97;5078592;28;45282;-68
2022/04/19 02:01:05;;;;;;;;;7.00;7.00;;;;;11.96;58.15;101268.44;5066573;28;45732;-69
2022/04/19 02:03:31;;;;;;;;;5.67;4.00;;;;;11.96;58.12;101268.44;5073150;28;45240;-70
2022/04/19 02:05:56;;;;;;;;;7.33;6.00;;;;;11.96;57.83;101266.56;5070526;28;45250;-69
2022/04/19 02:08:22;;;;;;;;;8.67;7.00;;;;;11.93;58.16;101268.69;5075241;28;46058;-68
2022/04/19 02:10:47;;;;;;;;;7.67;7.33;;;;;11.84;58.17;101258.66;5075056;27;45256;-69
2022/04/19 02:13:16;;;;;;;;;5.67;5.67;;;;;11.80;58.11;101268.13;5072594;28;45263;-69
2022/04/19 02:15:43;;;;;;;;;7.67;6.00;;;;;11.75;57.93;101263.16;5066161;28;45361;-68
2022/04/19 02:18:10;;;;;;;;;5.67;5.33;;;;;11.78;58.05;101264.69;5072961;28;47135;-69
2022/04/19 02:20:35;;;;;;;;;5.00;5.00;;;;;11.77;58.53;101268.41;5072820;28;45195;-68
2022/04/19 02:23:01;;;;;;;;;6.00;6.00;;;;;11.79;58.22;101266.41;5074408;27;45242;-68
2022/04/19 02:25:28;;;;;;;;;7.00;4.00;;;;;11.77;58.43;101265.69;5072173;27;45186;-68
2022/04/19 02:27:54;;;;;;;;;6.33;6.00;;;;;11.76;58.38;101261.28;5077262;27;45438;-68
2022/04/19 02:30:19;;;;;;;;;10.67;7.00;;;;;11.73;58.46;101266.97;5077969;27;45553;-68
2022/04/19 02:32:46;;;;;;;;;7.33;5.67;;;;;11.69;58.44;101267.25;5076623;28;45271;-69
2022/04/19 02:35:18;;;;;;;;;9.00;6.33;;;;;11.65;58.08;101260.38;5070939;28;45565;-68
2022/04/19 02:37:55;;;;;;;;;9.25;9.25;;;;;11.61;57.43;101258.97;5072835;28;47950;-69
2022/04/19 02:40:23;;;;;;;;;7.33;4.00;;;;;11.60;57.84;101259.09;5069322;27;45367;-68
2022/04/19 02:42:50;;;;;;;;;7.67;6.00;;;;;11.57;58.24;101256.63;5076597;28;45476;-68
2022/04/19 02:45:16;;;;;;;;;6.33;6.33;;;;;11.51;57.86;101249.06;5068870;28;45519;-68
2022/04/19 02:47:42;;;;;;;;;9.00;7.00;;;;;11.51;58.02;101259.94;5070720;28;47961;-68
2022/04/19 02:50:08;;;;;;;;;8.67;7.00;;;;;11.37;57.10;101252.19;5068692;28;45345;-68
2022/04/19 02:52:33;;;;;;;;;9.33;7.00;;;;;11.34;57.53;101256.03;5069654;28;45267;-68
2022/04/19 02:54:58;;;;;;;;;11.00;6.33;;;;;11.16;57.98;101250.44;5067714;28;45370;-68
2022/04/19 02:57:24;;;;;;;;;5.00;5.00;;;;;11.22;57.73;101252.59;5067188;28;48158;-68
2022/04/19 02:59:50;;;;;;;;;9.33;6.00;;;;;11.25;57.71;101259.63;5079099;27;45440;-68
2022/04/19 03:02:17;;;;;;;;;9.00;8.00;;;;;11.14;57.86;101249.72;5068881;28;45354;-68
2022/04/19 03:04:43;;;;;;;;;11.75;10.00;;;;;11.15;57.34;101250.59;5066910;28;45510;-68
2022/04/19 03:07:08;;;;;;;;;16.00;11.25;;;;;11.19;57.49;101249.28;5067301;28;47392;-70
2022/04/19 03:09:34;;;;;;;;;9.67;7.67;;;;;11.14;57.31;101237.97;5062916;28;45344;-69
2022/04/19 03:12:00;;;;;;;;;10.33;8.00;;;;;11.09;57.70;101241.13;5066404;28;45400;-69
2022/04/19 03:14:29;;;;;;;;;8.67;7.00;;;;;11.11;57.56;101238.25;5061787;27;45650;-69
2022/04/19 03:16:54;;;;;;;;;5.00;5.00;;;;;11.05;57.59;101241.53;5069938;28;45467;-69
2022/04/19 03:19:20;;;;;;;;;4.67;4.67;;;;;11.03;57.41;101235.38;5067758;27;45386;-68
2022/04/19 03:21:45;;;;;;;;;4.67;4.67;;;;;10.98;58.17;101246.66;5069588;28;45776;-69
2022/04/19 03:29:38;;;;;;;;;6.67;6.67;;;;;10.77;58.89;101227.72;5074689;27;45320;-68
2022/04/19 03:32:05;;;;;;;;;6.00;4.00;;;;;10.89;58.42;101236.63;5071328;28;45550;-68
2022/04/19 03:34:30;;;;;;;;;8.33;5.00;;;;;10.87;58.67;101236.78;5073077;27;45367;-69
2022/04/19 03:36:55;;;;;;;;;4.33;4.33;;;;;10.82;58.49;101227.28;5066316;28;48394;-68
2022/04/19 03:39:21;;;;;;;;;5.33;5.33;;;;;10.82;58.74;101230.00;5071115;28;45473;-68
2022/04/19 03:41:46;;;;;;;;;9.00;8.00;;;;;10.87;59.01;101227.75;5065282;28;45248;-68
2022/04/19 03:44:12;;;;;;;;;6.67;6.67;;;;;10.93;58.67;101230.78;5073631;28;45575;-69
2022/04/19 03:47:07;;;;;;;;;5.00;5.00;;;;;10.89;59.44;101228.47;5069096;28;45299;-68
2022/04/19 03:49:26;;;;;;;;;11.33;8.67;;;;;10.89;58.93;101229.31;5069676;28;45369;-68
2022/04/19 03:51:51;;;;;;;;;6.33;6.33;;;;;10.89;59.06;101232.03;5070748;28;45440;-68
2022/04/19 03:54:17;;;;;;;;;6.00;4.00;;;;;10.90;59.03;101222.03;5071743;28;45254;-69
2022/04/19 03:56:43;;;;;;;;;7.67;5.00;;;;;10.87;59.47;101228.63;5068845;28;46958;-68
2022/04/19 03:59:10;;;;;;;;;8.67;8.00;;;;;10.69;59.87;101222.09;5066364;28;45943;-69
2022/04/19 04:01:37;;;;;;;;;8.67;8.00;;;;;10.77;60.03;101226.84;5071936;28;45530;-69
2022/04/19 04:04:02;;;;;;;;;8.67;7.33;;;;;10.77;60.15;101225.00;5069066;27;45433;-69
2022/04/19 04:06:28;;;;;;;;;6.00;6.00;;;;;10.80;59.96;101224.75;5069270;28;45585;-69
2022/04/19 04:08:53;;;;;;;;;4.00;4.00;;;;;10.77;60.54;101214.13;5073659;27;45303;-68
2022/04/19 04:11:18;;;;;;;;;7.33;5.00;;;;;10.81;60.72;101217.44;5075057;28;45468;-68
2022/04/19 04:13:44;;;;;;;;;6.33;6.33;;;;;10.84;59.96;101212.56;5082418;27;45602;-70
2022/04/19 04:16:10;;;;;;;;;8.67;7.00;;;;;10.84;60.30;101220.72;5072551;27;45361;-69
2022/04/19 04:18:35;;;;;;;;;11.67;6.67;;;;;10.87;60.18;101219.59;5076083;27;45310;-68
2022/04/19 04:21:00;;;;;;;;;7.75;6.75;;;;;10.81;60.19;101212.84;5076803;28;45395;-68
2022/04/19 04:23:26;;;;;;;;;8.50;7.00;;;;;10.83;60.64;101212.72;5079400;27;45385;-69
2022/04/19 04:25:52;;;;;;;;;9.50;7.75;;;;;10.84;60.32;101226.16;5070707;27;45509;-69
2022/04/19 04:28:17;;;;;;;;;15.25;9.75;;;;;10.82;60.62;101217.28;5076403;27;45313;-68
2022/04/19 04:30:43;;;;;;;;;5.75;5.75;;;;;10.84;60.55;101220.72;5082018;28;46486;-68
2022/04/19 04:33:08;;;;;;;;;6.67;4.00;;;;;10.79;60.88;101223.00;5079948;27;45414;-69
2022/04/19 04:35:33;;;;;;;;;9.00;6.00;;;;;10.71;61.23;101219.25;5069672;28;48231;-68
2022/04/19 04:37:59;;;;;;;;;5.67;4.00;;;;;10.71;61.36;101219.25;5074534;27;45494;-69
2022/04/19 04:40:24;;;;;;;;;10.67;8.67;;;;;10.73;61.66;101220.00;5079213;28;45387;-68
2022/04/19 04:42:50;;;;;;;;;6.67;6.00;;;;;10.71;61.54;101236.44;5074923;28;45323;-68
2022/04/19 04:45:15;;;;;;;;;5.00;5.00;;;;;10.78;61.58;101231.31;5071300;28;46053;-68
2022/04/19 04:50:25;;;;;;;;;4.33;4.33;;;;;10.75;62.46;101237.88;5070855;28;45396;-69
2022/04/19 04:52:52;;;;;;;;;8.33;4.33;;;;;10.74;61.92;101236.13;5072208;28;45381;-69
2022/04/19 04:55:17;;;;;;;;;8.50;8.25;;;;;10.74;62.00;101241.56;5077070;27;46730;-69
2022/04/19 04:57:43;;;;;;;;;7.33;6.33;;;;;10.73;62.08;101236.31;5068789;28;45333;-69
2022/04/19 05:00:09;;;;;;;;;10.67;7.33;;;;;10.70;62.22;101237.41;5067611;27;45427;-68
2022/04/19 05:02:35;;;;;;;;;7.00;6.67;;;;;10.62;62.57;101241.81;5073268;28;45417;-69
2022/04/19 05:05:00;;;;;;;;;17.00;10.00;;;;;10.67;62.25;101245.84;5068270;28;45374;-68
2022/04/19 05:07:25;;;;;;;;;4.67;4.00;;;;;10.69;62.52;101237.56;5075575;28;45173;-68
2022/04/19 05:09:51;;;;;;;;;8.67;8.00;;;;;10.71;62.70;101247.31;5064313;28;45301;-68
2022/04/19 05:12:16;;;;;;;;;6.67;6.67;;;;;10.73;62.65;101237.16;5074883;28;45337;-68
2022/04/19 05:14:42;;;;;;;;;4.67;4.00;;;;;10.77;62.63;101246.75;5065311;28;47556;-69
2022/04/19 05:17:07;;;;;;;;;9.67;8.67;;;;;10.79;62.62;101244.75;5071126;28;48009;-69
2022/04/19 05:19:32;;;;;;;;;10.00;9.00;;;;;10.80;62.94;101237.47;5066503;27;45306;-69
2022/04/19 05:21:58;;;;;;;;;5.33;5.33;;;;;10.81;62.68;101237.31;5070573;28;46149;-69
2022/04/19 05:24:23;;;;;;;;;11.33;6.67;;;;;10.85;63.20;101244.19;5076774;28;45662;-68
2022/04/19 05:26:49;;;;;;;;;4.67;4.67;;;;;10.83;63.31;101248.03;5070087;28;45424;-68
2022/04/19 05:29:14;;;;;;;;;6.33;6.33;;;;;10.91;62.62;101245.50;5078845;27;45341;-68
2022/04/19 05:31:39;;;;;;;;;7.33;6.00;;;;;10.91;62.54;101250.94;5068976;28;45542;-68
2022/04/19 05:34:05;;;;;;;;;8.67;6.00;;;;;10.95;62.88;101249.69;5078978;28;47810;-70
2022/04/19 05:36:31;;;;;;;;;7.33;4.67;;;;;10.81;63.24;101248.19;5066934;28;45346;-68
2022/04/19 05:38:57;;;;;;;;;10.33;8.67;;;;;10.84;63.30;101252.50;5076421;27;45595;-68
2022/04/19 05:41:23;;;;;;;;;6.67;5.33;;;;;10.74;64.09;101238.84;5066679;28;45811;-70
2022/04/19 05:43:49;;;;;;;;;18.75;12.50;;;;;10.66;64.51;101233.28;5074621;27;45934;-69
2022/04/19 05:46:17;;;;;;;;;9.67;7.67;;;;;10.79;64.61;101250.19;5064878;28;45619;-71
2022/04/19 05:48:43;;;;;;;;;9.00;5.33;;;;;10.77;64.84;101252.19;5072714;28;45251;-71
2022/04/19 05:51:08;;;;;;;;;5.00;4.33;;;;;10.77;64.78;101257.63;5066101;28;45347;-68
2022/04/19 05:53:33;;;;;;;;;14.33;9.67;;;;;10.82;65.01;101249.91;5070340;28;45335;-68
2022/04/19 05:55:58;;;;;;;;;10.67;8.67;;;;;10.86;64.64;101255.94;5065701;28;45338;-68
2022/04/19 05:58:24;;;;;;;;;11.50;10.25;;;;;10.91;65.11;101248.22;5067743;28;45434;-70
2022/04/19 06:00:49;;;;;;;;;8.33;8.33;;;;;11.13;65.11;101258.00;5065942;28;45230;-70
2022/04/19 06:05:58;;;;;;;;;9.33;4.00;;;;;11.87;62.46;101251.09;5068393;28;45426;-70
2022/04/19 06:08:24;;;;;;;;;5.67;5.33;;;;;11.82;62.07;101257.97;5071851;28;45645;-70
2022/04/19 06:10:50;;;;;;;;;8.33;5.67;;;;;11.62;63.11;101255.22;5064548;28;45414;-67
2022/04/19 06:13:16;;;;;;;;;15.33;9.00;;;;;11.55;63.62;101255.91;5067401;28;47548;-70
2022/04/19 06:15:42;;;;;;;;;11.67;7.67;;;;;11.59;63.38;101260.09;5071004;28;45345;-68
2022/04/19 06:18:07;;;;;;;;;12.25;10.25;;;;;11.67;63.36;101258.38;5070018;28;45372;-69
2022/04/19 06:20:32;;;;;;;;;8.00;8.00;;;;;11.62;63.38;101251.63;5063566;28;45312;-70
2022/04/19 06:22:58;;;;;;;;;9.00;9.00;;;;;11.82;63.21;101257.97;5070295;28;47945;-70
2022/04/19 06:25:23;;;;;;;;;12.50;10.00;;;;;12.09;62.68;101266.25;5070688;27;46015;-70
2022/04/19 06:27:49;;;;;;;;;14.00;11.00;;;;;12.59;60.68;101261.41;5071012;27;45542;-70
2022/04/19 06:30:14;;;;;;;;;11.75;10.00;;;;;12.62;60.28;101247.47;5069459;27;45494;-70
2022/04/19 06:32:41;;;;;;;;;14.00;12.25;;;;;12.71;60.10;101249.28;5072405;28;46619;-71
2022/04/19 06:35:08;;;;;;;;;21.75;15.00;;;;;12.44;60.97;101257.44;5071326;27;45172;-70
2022/04/19 06:37:34;;;;;;;;;15.67;10.33;;;;;12.38;61.09;101253.44;5070364;27;47660;-70
2022/04/19 06:40:04;;;;;;;;;16.25;14.75;;;;;12.29;60.78;101251.59;5070685;27;45218;-70
2022/04/19 06:42:29;;;;;;;;;13.33;10.67;;;;;12.26;60.84;101254.63;5067729;28;45637;-70
2022/04/19 06:44:55;;;;;;;;;11.33;10.33;;;;;12.26;61.09;101251.91;5069544;27;45301;-70
2022/04/19 06:47:21;;;;;;;;;16.25;9.00;;;;;12.30;61.07;101245.13;5067960;28;45532;-71
2022/04/19 06:49:46;;;;;;;;;10.75;10.75;;;;;12.20;61.35;101248.91;5075340;28;45210;-70
2022/04/19 06:52:11;;;;;;;;;13.33;10.67;;;;;12.26;61.56;101249.19;5069325;27;45425;-70
2022/04/19 06:54:37;;;;;;;;;14.00;11.50;;;;;12.49;60.31;101239.59;5065438;28;45441;-70
2022/04/19 06:57:03;;;;;;;;;14.50;11.00;;;;;12.44;60.21;101243.81;5084585;27;45440;-70
2022/04/19 06:59:28;;;;;;;;;12.25;10.25;;;;;12.42;60.25;101254.84;5066748;28;45239;-70
2022/04/19 07:01:53;;;;;;;;;15.50;11.75;;;;;12.43;60.18;101237.50;5069557;28;46276;-70
2022/04/19 07:04:19;;;;;;;;;13.00;10.00;;;;;12.38;60.55;101231.63;5064940;28;45287;-70
2022/04/19 07:06:44;;;;;;;;;11.25;9.75;;;;;12.60;60.14;101241.31;5073206;27;45369;-70
2022/04/19 07:09:09;;;;;;;;;12.25;10.50;;;;;12.59;60.10;101239.59;5070647;28;45687;-70
2022/04/19 07:11:37;;;;;;;;;13.00;9.33;;;;;12.62;60.01;101220.22;5066803;28;46460;-70
2022/04/19 07:14:03;;;;;;;;;12.25;9.50;;;;;12.64;59.87;101247.34;5068709;27;45373;-71
2022/04/19 07:16:28;;;;;;;;;13.25;10.75;;;;;12.74;59.85;101239.94;5064782;28;45331;-70
2022/04/19 07:18:54;;;;;;;;;10.00;9.00;;;;;12.99;59.29;101247.44;5070130;27;45321;-70
2022/04/19 07:26:48;;;;;;;;;23.50;13.75;;;;;13.30;57.58;101236.22;5066385;28;45467;-70
2022/04/19 07:29:18;;;;;;;;;14.00;11.00;;;;;13.27;57.92;101236.53;5074167;27;45429;-71
2022/04/19 07:31:46;;;;;;;;;14.50;12.25;;;;;13.32;58.09;101245.13;5066458;28;46487;-69
2022/04/19 07:34:12;;;;;;;;;16.00;14.00;;;;;13.35;57.86;101233.91;5075055;27;45505;-70
2022/04/19 07:36:40;;;;;;;;;20.50;14.00;;;;;13.48;57.74;101231.63;5066057;28;45461;-69
2022/04/19 07:39:07;;;;;;;;;12.50;10.50;;;;;13.71;57.02;101234.75;5072980;27;45422;-69
2022/04/19 07:41:34;;;;;;;;;16.75;14.00;;;;;13.60;56.56;101238.56;5065087;28;45479;-69
2022/04/19 07:44:01;;;;;;;;;15.00;12.25;;;;;13.57;57.14;101230.72;5070757;27;45656;-70
2022/04/19 07:46:27;;;;;;;;;14.00;11.33;;;;;13.62;56.96;101240.16;5075425;27;45591;-69
2022/04/19 07:48:53;;;;;;;;;16.50;14.00;;;;;13.71;56.86;101237.50;5064803;27;45314;-71
2022/04/19 07:51:19;;;;;;;;;14.25;12.00;;;;;13.92;56.21;101236.16;5072344;28;46183;-68
2022/04/19 07:53:44;;;;;;;;;19.25;14.75;;;;;14.06;56.07;101237.44;5067012;27;45274;-69
2022/04/19 07:56:10;;;;;;;;;15.75;11.50;;;;;14.24;55.39;101234.69;5070104;28;45217;-69
2022/04/19 07:58:36;;;;;;;;;14.25;13.50;;;;;14.24;55.08;101234.69;5072409;27;45674;-69
2022/04/19 08:01:01;;;;;;;;;15.00;10.67;;;;;14.20;54.59;101230.53;5064471;28;46733;-70
2022/04/19 08:03:27;;;;;;;;;10.00;10.00;;;;;14.23;54.82;101233.84;5070973;28;45321;-70
2022/04/19 08:05:53;;;;;;;;;14.00;11.67;;;;;14.68;53.81;101224.56;5072069;28;45507;-70
2022/04/19 08:08:21;;;;;;;;;12.50;11.50;;;;;14.69;53.27;101224.38;5071126;28;45573;-70
2022/04/19 08:10:46;;;;;;;;;12.33;10.67;;;;;15.01;52.63;101220.94;5071288;27;46975;-70
2022/04/19 08:13:12;;;;;;;;;9.25;8.00;;;;;15.05;51.20;101224.22;5071125;27;45399;-69
2022/04/19 08:15:37;;;;;;;;;18.00;11.00;;;;;14.90;51.58;101221.25;5062258;28;45587;-70
2022/04/19 08:18:02;;;;;;;;;14.50;13.75;;;;;15.17;51.70;101223.72;5082481;27;45243;-69
2022/04/19 08:20:28;;;;;;;;;15.00;14.75;;;;;15.35;51.85;101225.47;5070941;27;45662;-70
2022/04/19 08:22:53;;;;;;;;;5.00;4.00;;;;;15.55;50.38;101222.31;5071585;28;45629;-70
2022/04/19 08:25:19;;;;;;;;;14.33;12.00;;;;;15.61;49.51;101219.91;5071244;27;45333;-70
2022/04/19 08:27:48;;;;;;;;;13.67;11.33;;;;;15.41;49.83;101224.81;5070754;27;45238;-70
2022/04/19 08:30:18;;;;;;;;;13.00;8.00;;;;;15.63;49.42;101235.16;5070633;27;45504;-71
2022/04/19 08:32:45;;;;;;;;;13.33;11.33;;;;;15.79;48.75;101224.19;5068418;28;45488;-70
2022/04/19 08:35:11;;;;;;;;;14.33;10.67;;;;;16.25;48.33;101222.63;5073854;28;45184;-70
2022/04/19 08:37:37;;;;;;;;;13.67;11.00;;;;;16.55;46.71;101225.66;5069785;27;45817;-70
2022/04/19 08:40:07;;;;;;;;;13.00;9.67;;;;;16.40;46.57;101219.16;5062885;28;45378;-70
2022/04/19 08:42:34;;;;;;;;;15.67;13.33;;;;;15.92;47.02;101224.56;5067279;28;46106;-70
2022/04/19 08:45:01;;;;;;;;;7.00;6.33;;;;;16.07;46.77;101221.94;5068805;27;45326;-69
2022/04/19 08:47:28;;;;;;;;;8.67;7.33;;;;;16.51;46.93;101211.41;5066982;28;45327;-70
2022/04/19 08:49:55;;;;;;;;;14.00;9.00;;;;;16.87;45.68;101209.13;5067848;28;46642;-70
2022/04/19 08:52:20;;;;;;;;;13.00;11.33;;;;;17.05;45.73;101201.47;5063455;28;45408;-70
2022/04/19 08:57:31;;;;;;;;;12.00;9.67;;;;;17.61;42.91;101188.44;5069845;28;45459;-70
2022/04/19 09:00:01;;;;;;;;;11.33;9.33;;;;;17.76;43.15;101200.34;5069506;27;46195;-70
2022/04/19 09:02:29;;;;;;;;;9.00;9.00;;;;;17.87;43.07;101208.16;5070935;28;45222;-70
2022/04/19 09:05:11;;;;;;;;;6.00;6.00;;;;;18.10;43.07;101201.78;5068366;28;45398;-70
2022/04/19 09:07:37;;;;;;;;;7.33;7.33;;;;;18.08;41.95;101195.59;5076139;28;45553;-70
2022/04/19 09:10:06;;;;;;;;;8.33;8.33;;;;;18.46;41.56;101190.91;5082411;27;47132;-69
2022/04/19 09:12:31;;;;;;;;;7.00;5.67;;;;;18.42;41.08;101184.91;5073165;27;45373;-71
2022/04/19 09:15:06;;;;;;;;;12.00;8.00;;;;;18.44;40.69;101188.34;5065924;28;45353;-69
2022/04/19 09:17:42;;;;;;;;;11.00;9.67;;;;;18.62;40.61;101183.38;5071371;28;45455;-70
2022/04/19 09:20:16;;;;;;;;;8.67;7.00;;;;;18.26;40.27;101185.94;5077169;27;46273;-69
2022/04/19 09:22:48;;;;;;;;;11.33;11.00;;;;;19.06;39.78;101193.47;5071260;28;45396;-70
2022/04/19 09:25:15;;;;;;;;;10.33;8.00;;;;;19.17;38.50;101192.09;5075496;27;45298;-70
2022/04/19 09:27:44;;;;;;;;;7.33;7.33;;;;;19.58;39.57;101187.72;5072554;27;45338;-70
2022/04/19 09:30:20;;;;;;;;;12.33;9.00;;;;;19.54;39.33;101177.28;5072132;28;47546;-69
2022/04/19 09:33:07;;;;;;;;;9.33;7.67;;;;;19.54;38.47;101180.06;5070535;28;45637;-71
2022/04/19 09:35:36;;;;;;;;;12.67;11.00;;;;;20.12;38.25;101179.72;5077178;28;45334;-69
2022/04/19 09:38:01;;;;;;;;;8.33;8.33;;;;;20.13;38.53;101180.59;5072310;27;45518;-69
2022/04/19 09:40:36;;;;;;;;;9.00;8.00;;;;;20.87;38.21;101172.59;5068645;27;45468;-70
2022/04/19 09:43:11;;;;;;;;;8.67;8.00;;;;;20.58;37.32;101184.75;5073492;28;45454;-70
2022/04/19 09:45:51;;;;;;;;;12.67;7.00;;;;;20.48;37.24;101173.22;5080441;28;45372;-71
2022/04/19 09:48:23;;;;;;;;;9.67;7.00;;;;;20.12;37.84;101173.38;5077283;28;45281;-70
2022/04/19 09:51:09;;;;;;;;;7.67;6.67;;;;;20.23;37.63;101171.97;5078696;27;46425;-70
2022/04/19 09:53:46;;;;;;;;;10.00;6.67;;;;;20.52;37.52;101177.31;5071290;28;45370;-70
2022/04/19 09:56:13;;;;;;;;;15.00;11.67;;;;;20.24;38.19;101166.22;5066220;28;45408;-70
2022/04/19 09:58:41;;;;;;;;;12.33;10.67;;;;;20.67;37.90;101160.59;5072873;28;45250;-70
2022/04/19 10:01:06;;;;;;;;;9.67;9.67;;;;;20.82;36.40;101164.91;5066166;28;45427;-70
2022/04/19 10:09:05;;;;;;;;;6.67;6.67;;;;;21.65;36.48;101144.34;5064140;28;45402;-70
2022/04/19 10:11:31;;;;;;;;;10.33;10.00;;;;;22.06;36.03;101130.34;5071940;28;47007;-70
2022/04/19 10:13:57;;;;;;;;;14.00;9.33;;;;;21.67;35.40;101136.72;5063163;28;45881;-69
2022/04/19 10:16:23;;;;;;;;;12.33;12.33;;;;;21.58;35.41;101132.44;5074768;28;45530;-70
2022/04/19 10:18:48;;;;;;;;;8.00;6.00;;;;;21.57;36.75;101130.72;5073195;28;45369;-71
2022/04/19 10:21:24;;;;;;;;;7.67;7.67;;;;;21.49;35.37;101130.94;5077614;28;46212;-68
2022/04/19 10:23:50;;;;;;;;;7.00;7.00;;;;;21.79;36.54;101125.84;5074323;27;45434;-71
2022/04/19 10:26:20;;;;;;;;;6.33;6.33;;;;;22.41;35.16;101113.47;5079317;27;45432;-70
2022/04/19 10:28:48;;;;;;;;;12.00;9.33;;;;;22.82;34.33;101121.44;5077407;27;45442;-70
2022/04/19 10:31:27;;;;;;;;;9.00;7.67;;;;;22.71;33.70;101119.34;5066636;27;47027;-70
2022/04/19 10:33:54;;;;;;;;;10.00;9.33;;;;;22.59;34.08;101113.63;5071486;28;45377;-70
2022/04/19 10:36:22;;;;;;;;;13.00;10.67;;;;;22.26;34.67;101116.50;5065563;28;46178;-70
2022/04/19 10:39:12;;;;;;;;;9.67;8.00;;;;;21.84;35.62;101119.69;5072498;28;45527;-70
2022/04/19 10:42:02;;;;;;;;;8.33;8.33;;;;;21.73;35.25;101119.25;5066192;28;47090;-70
2022/04/19 10:44:49;;;;;;;;;12.67;9.33;;;;;22.01;35.58;101108.00;5076170;27;45330;-71
2022/04/19 10:47:23;;;;;;;;;12.67;12.33;;;;;21.82;36.55;101111.59;5071599;27;45290;-71
2022/04/19 10:49:57;;;;;;;;;11.67;11.33;;;;;21.77;36.66;101108.59;5069782;28;45287;-70
2022/04/19 10:52:42;;;;;;;;;13.00;11.67;;;;;21.87;36.42;101108.19;5074814;28;48380;-70
2022/04/19 10:55:14;;;;;;;;;10.67;10.67;;;;;21.84;36.42;101115.03;5078761;28;45270;-71
2022/04/19 11:00:35;;;;;;;;;16.33;13.67;;;;;22.41;35.81;101099.63;5087361;28;45362;-71
2022/04/19 11:03:05;;;;;;;;;15.33;14.00;;;;;21.89;36.28;101112.47;5071872;28;45538;-70
2022/04/19 11:05:51;;;;;;;;;13.67;13.67;;;;;22.51;35.69;101091.69;5065459;28;45331;-71
2022/04/19 11:08:26;;;;;;;;;17.33;14.00;;;;;22.40;36.38;101079.41;5074881;28;45405;-71
2022/04/19 11:10:55;;;;;;;;;12.67;12.67;;;;;23.35;34.36;101097.06;5071593;28;45586;-70
2022/04/19 11:13:27;;;;;;;;;13.33;13.33;;;;;23.53;34.36;101096.31;5070923;27;45813;-70
2022/04/19 11:16:05;;;;;;;;;14.75;14.75;;;;;23.73;33.51;101087.84;5071839;28;45460;-71
2022/04/19 11:18:36;;;;;;;;;13.00;11.00;;;;;24.08;34.04;101090.94;5078919;28;45472;-70
2022/04/19 11:21:04;;;;;;;;;13.33;12.00;;;;;23.77;32.85;101089.94;5077572;27;45360;-70
2022/04/19 11:23:48;;;;;;;;;13.50;13.50;;;;;23.60;33.66;101083.25;5073577;27;46427;-72
2022/04/19 11:26:34;;;;;;;;;20.33;17.33;;;;;23.68;33.69;101078.28;5065443;27;45480;-71
2022/04/19 11:29:09;;;;;;;;;17.67;14.33;;;;;24.13;32.92;101078.06;5076008;27;45292;-70
2022/04/19 11:31:54;;;;;;;;;15.00;13.33;;;;;23.40;34.51;101082.53;5075766;28;45329;-70
2022/04/19 11:34:20;;;;;;;;;13.67;12.67;;;;;23.88;33.60;101075.34;5068679;27;45384;-71
2022/04/19 11:36:45;;;;;;;;;9.00;9.00;;;;;24.22;32.55;101076.72;5072469;28;45393;-71
2022/04/19 11:47:46;;;;;;;;;20.67;14.00;;;;;24.10;32.72;101072.13;5066668;28;45365;-71
2022/04/19 11:50:31;;;;;;;;;15.33;12.33;;;;;23.93;33.84;101072.72;5062675;28;45494;-71
2022/04/19 11:52:57;;;;;;;;;16.50;13.50;;;;;23.39;33.79;101072.50;5074532;28;45956;-70
2022/04/19 11:55:25;;;;;;;;;12.33;12.33;;;;;23.41;34.21;101073.13;5092216;27;47096;-70
2022/04/19 11:58:21;;;;;;;;;21.25;17.50;;;;;23.28;33.77;101066.63;5075854;28;45355;-71